Time;durP1;ratioP1;P1;durP2;ratioP2;P2;SDS_P1;SDS_P2;PMS_P1;PMS_P2;Temp;Humidity;BMP_temperature;BMP_pressure;BME280_temperature;BME280_humidity;BME280_pressure;Samples;Min_cycle;Max_cycle;Signal;HPM_P1;HPM_P2
2022/02/26 00:01:36;;;;;;;;;;;;;;;22.40;21.31;98058.56;5066925;28;1063;-76
2022/02/26 00:04:01;;;;;;;;;;;;;;;21.94;21.82;98069.13;5098379;28;1110;-76
2022/02/26 00:06:27;;;;;;;;;;;;;;;21.95;21.76;98062.22;5099094;28;1905;-77
2022/02/26 00:08:52;;;;;;;;;;;;;;;21.82;22.32;98056.50;5098482;28;909;-76
2022/02/26 00:11:17;;;;;;;;;;;;;;;22.20;21.68;98056.69;5098330;28;913;-75
2022/02/26 00:13:43;;;;;;;;;;;;;;;22.35;21.50;98063.53;5098559;28;1183;-76
2022/02/26 00:16:08;;;;;;;;;;;;;;;22.13;21.58;98056.91;5098753;28;1081;-76
2022/02/26 00:18:34;;;;;;;;;;;;;;;21.89;22.01;98058.34;5098384;28;924;-76
2022/02/26 00:20:59;;;;;;;;;;;;;;;21.73;22.29;98065.63;5098804;28;1129;-76
2022/02/26 00:23:25;;;;;;;;;;;;;;;21.71;22.41;98058.78;5098150;28;974;-75
2022/02/26 00:25:51;;;;;;;;;;;;;;;22.31;21.68;98067.72;5098101;28;1962;-77
2022/02/26 00:28:17;;;;;;;;;;;;;;;22.43;21.36;98063.31;5098155;28;914;-75
2022/02/26 00:30:42;;;;;;;;;;;;;;;22.18;21.70;98058.38;5098410;28;929;-76
2022/02/26 00:33:07;;;;;;;;;;;;;;;21.85;22.07;98064.09;5098249;28;893;-75
2022/02/26 00:35:33;;;;;;;;;;;;;;;21.78;22.18;98064.28;5098138;28;1149;-76
2022/02/26 00:37:59;;;;;;;;;;;;;;;22.18;21.75;98064.06;5061854;28;1054;-76
2022/02/26 00:40:25;;;;;;;;;;;;;;;22.33;21.59;98068.88;5098207;28;991;-75
2022/02/26 00:42:50;;;;;;;;;;;;;;;22.50;21.24;98063.94;5097662;28;1290;-76
2022/02/26 00:45:17;;;;;;;;;;;;;;;22.14;21.61;98058.47;5098422;28;1054;-75
2022/02/26 00:47:43;;;;;;;;;;;;;;;21.97;21.94;98066.19;5097203;28;1914;-75
2022/02/26 00:50:09;;;;;;;;;;;;;;;21.88;21.73;98062.41;5098141;28;913;-74
2022/02/26 00:52:35;;;;;;;;;;;;;;;21.93;22.06;98067.53;5097411;28;977;-75
2022/02/26 00:55:02;;;;;;;;;;;;;;;22.27;21.60;98073.47;5097772;28;976;-75
2022/02/26 00:57:27;;;;;;;;;;;;;;;22.52;21.01;98078.44;5097462;28;1179;-76
2022/02/26 00:59:53;;;;;;;;;;;;;;;22.02;21.61;98067.66;5097608;28;946;-75
2022/02/26 01:02:19;;;;;;;;;;;;;;;21.78;22.07;98076.41;5097210;28;1002;-76
2022/02/26 01:04:44;;;;;;;;;;;;;;;22.01;21.73;98071.75;5097443;28;936;-75
2022/02/26 01:07:10;;;;;;;;;;;;;;;22.33;21.59;98074.53;5097273;28;1972;-75
2022/02/26 01:09:36;;;;;;;;;;;;;;;22.55;21.09;98077.56;5097500;28;900;-75
2022/02/26 01:12:01;;;;;;;;;;;;;;;22.07;21.67;98075.63;5097595;28;1092;-76
2022/02/26 01:14:27;;;;;;;;;;;;;;;21.85;21.95;98072.56;5097122;28;871;-75
2022/02/26 01:16:52;;;;;;;;;;;;;;;21.83;22.02;98072.25;5097030;28;1022;-75
2022/02/26 01:19:18;;;;;;;;;;;;;;;22.13;21.45;98068.22;5097052;28;932;-76
2022/02/26 01:21:43;;;;;;;;;;;;;;;22.46;21.10;98085.13;5096880;28;1081;-76
2022/02/26 01:24:09;;;;;;;;;;;;;;;22.13;21.36;98073.91;5097023;28;862;-75
2022/02/26 01:26:35;;;;;;;;;;;;;;;21.93;21.79;98076.81;5097020;28;1946;-76
2022/02/26 01:29:03;;;;;;;;;;;;;;;21.84;21.67;98074.63;5077731;28;986;-75
2022/02/26 01:31:29;;;;;;;;;;;;;;;22.22;21.68;98071.19;5096875;28;1146;-75
2022/02/26 01:33:55;;;;;;;;;;;;;;;22.50;21.16;98065.97;5096773;28;924;-76
2022/02/26 01:36:20;;;;;;;;;;;;;;;22.00;21.68;98070.16;5096886;28;1165;-75
2022/02/26 01:38:46;;;;;;;;;;;;;;;21.74;21.98;98070.03;5096501;28;883;-75
2022/02/26 01:41:11;;;;;;;;;;;;;;;21.68;22.04;98066.16;5097319;28;1034;-76
2022/02/26 01:43:38;;;;;;;;;;;;;;;22.17;21.58;98077.41;5096410;28;884;-76
2022/02/26 01:46:04;;;;;;;;;;;;;;;22.48;21.24;98068.44;5096514;28;1977;-74
2022/02/26 01:48:32;;;;;;;;;;;;;;;22.25;21.28;98070.31;5096421;28;905;-76
2022/02/26 01:50:57;;;;;;;;;;;;;;;21.94;21.63;98066.28;5096534;28;994;-74
2022/02/26 01:53:23;;;;;;;;;;;;;;;21.76;21.73;98069.56;5095294;28;922;-76
2022/02/26 01:55:49;;;;;;;;;;;;;;;21.94;21.59;98069.13;5096763;28;945;-75
2022/02/26 01:58:14;;;;;;;;;;;;;;;22.40;20.91;98076.38;5077735;28;1061;-75
2022/02/26 02:00:40;;;;;;;;;;;;;;;22.70;20.69;98077.94;5096442;28;884;-75
2022/02/26 02:03:05;;;;;;;;;;;;;;;22.09;21.45;98079.63;5096215;28;1019;-74
2022/02/26 02:05:31;;;;;;;;;;;;;;;21.99;21.32;98075.03;5096393;28;943;-75
2022/02/26 02:07:56;;;;;;;;;;;;;;;21.85;21.45;98073.38;5095858;28;1993;-75
2022/02/26 02:10:22;;;;;;;;;;;;;;;22.27;21.37;98086.84;5096434;28;982;-76
2022/02/26 02:12:47;;;;;;;;;;;;;;;22.44;20.89;98082.75;5060041;28;1017;-76
2022/02/26 02:15:13;;;;;;;;;;;;;;;22.31;20.72;98085.50;5096230;28;1022;-75
2022/02/26 02:17:42;;;;;;;;;;;;;;;21.92;21.31;98080.13;5077644;28;975;-75
2022/02/26 02:20:07;;;;;;;;;;;;;;;21.75;21.61;98082.94;5096391;28;916;-76
2022/02/26 02:22:33;;;;;;;;;;;;;;;21.91;21.43;98079.28;5095916;28;993;-76
2022/02/26 02:24:59;;;;;;;;;;;;;;;22.23;21.32;98078.47;5096428;28;901;-76
2022/02/26 02:27:24;;;;;;;;;;;;;;;22.42;20.92;98090.09;5095755;28;1891;-75
2022/02/26 02:29:50;;;;;;;;;;;;;;;21.93;21.26;98081.69;5095966;28;928;-75
2022/02/26 02:32:15;;;;;;;;;;;;;;;21.85;21.71;98081.88;5077449;28;889;-75
2022/02/26 02:34:41;;;;;;;;;;;;;;;21.73;21.54;98090.31;5095657;28;900;-75
2022/02/26 02:37:10;;;;;;;;;;;;;;;22.21;21.02;98089.44;5095603;28;933;-76
2022/02/26 02:39:35;;;;;;;;;;;;;;;22.48;20.97;98089.06;5042631;28;1017;-74
2022/02/26 02:42:01;;;;;;;;;;;;;;;22.19;20.83;98091.94;5095451;28;947;-76
2022/02/26 02:44:26;;;;;;;;;;;;;;;21.96;21.57;98092.13;5095652;28;963;-76
2022/02/26 02:46:52;;;;;;;;;;;;;;;21.90;21.58;98096.75;5095598;28;1975;-75
2022/02/26 02:49:17;;;;;;;;;;;;;;;22.24;21.27;98094.22;5095182;28;996;-75
2022/02/26 02:51:43;;;;;;;;;;;;;;;22.46;20.73;98099.28;5095731;28;970;-76
2022/02/26 02:54:08;;;;;;;;;;;;;;;22.52;20.62;98106.00;5032079;28;1011;-76
2022/02/26 02:56:34;;;;;;;;;;;;;;;22.11;21.18;98099.03;5032888;28;1016;-76
2022/02/26 02:59:00;;;;;;;;;;;;;;;21.95;21.38;98107.53;5015717;28;1229;-75
2022/02/26 03:01:25;;;;;;;;;;;;;;;22.08;20.99;98111.25;5032631;28;1154;-75
2022/02/26 03:03:51;;;;;;;;;;;;;;;22.28;21.12;98109.09;5031704;28;953;-76
2022/02/26 03:06:16;;;;;;;;;;;;;;;22.25;21.00;98109.19;5032648;28;1906;-76
2022/02/26 03:08:41;;;;;;;;;;;;;;;22.04;20.97;98111.34;5032594;28;950;-74
2022/02/26 03:11:07;;;;;;;;;;;;;;;21.68;21.71;98114.28;5032505;28;958;-76
2022/02/26 03:13:34;;;;;;;;;;;;;;;22.06;21.33;98108.03;5032385;28;1002;-75
2022/02/26 03:15:59;;;;;;;;;;;;;;;22.70;20.70;98116.84;5032399;28;1137;-76
2022/02/26 03:18:25;;;;;;;;;;;;;;;22.29;20.81;98105.03;5032423;28;1121;-75
2022/02/26 03:20:51;;;;;;;;;;;;;;;22.07;20.94;98109.63;5032585;28;948;-76
2022/02/26 03:23:16;;;;;;;;;;;;;;;21.73;21.50;98102.44;5032136;28;1220;-76
2022/02/26 03:25:42;;;;;;;;;;;;;;;22.01;21.09;98105.75;5032432;28;908;-75
2022/02/26 03:28:07;;;;;;;;;;;;;;;22.30;20.89;98106.59;5032309;28;1969;-76
2022/02/26 03:30:33;;;;;;;;;;;;;;;22.32;20.85;98104.09;5036964;28;975;-75
2022/02/26 03:32:58;;;;;;;;;;;;;;;22.07;21.11;98110.44;5095037;28;898;-75
2022/02/26 03:35:24;;;;;;;;;;;;;;;21.90;21.32;98116.56;5095509;28;930;-75
2022/02/26 03:37:50;;;;;;;;;;;;;;;22.06;21.20;98113.72;5094537;28;954;-76
2022/02/26 03:40:16;;;;;;;;;;;;;;;22.32;20.75;98115.44;5032598;28;1078;-76
2022/02/26 03:42:42;;;;;;;;;;;;;;;22.30;20.84;98117.94;5032035;28;928;-76
2022/02/26 03:45:08;;;;;;;;;;;;;;;21.91;21.31;98118.94;5032594;28;1108;-75
2022/02/26 03:47:33;;;;;;;;;;;;;;;21.84;21.07;98124.81;5031990;28;1973;-75
2022/02/26 03:49:59;;;;;;;;;;;;;;;21.98;21.12;98129.31;5032621;28;1006;-75
2022/02/26 03:52:24;;;;;;;;;;;;;;;22.27;21.04;98135.03;5032152;28;1128;-76
2022/02/26 03:54:49;;;;;;;;;;;;;;;22.54;20.56;98129.06;5032261;28;1005;-76
2022/02/26 03:57:15;;;;;;;;;;;;;;;22.04;21.19;98133.22;5032281;28;977;-75
2022/02/26 03:59:40;;;;;;;;;;;;;;;21.92;21.19;98142.44;5031737;28;985;-75
2022/02/26 04:02:06;;;;;;;;;;;;;;;21.63;21.54;98140.31;5032058;28;1009;-76
2022/02/26 04:04:31;;;;;;;;;;;;;;;22.24;21.01;98142.41;5031752;28;1078;-74
2022/02/26 04:06:57;;;;;;;;;;;;;;;22.41;20.60;98139.53;5032335;28;1906;-75
2022/02/26 04:09:23;;;;;;;;;;;;;;;22.00;21.20;98138.16;5031999;28;950;-76
2022/02/26 04:11:49;;;;;;;;;;;;;;;21.81;21.33;98137.84;5060387;28;938;-75
2022/02/26 04:14:14;;;;;;;;;;;;;;;21.53;21.73;98145.00;5094608;28;895;-76
2022/02/26 04:16:39;;;;;;;;;;;;;;;21.99;21.24;98147.91;5079642;28;964;-75
2022/02/26 04:19:06;;;;;;;;;;;;;;;22.38;20.86;98146.09;5098406;28;895;-76
2022/02/26 04:21:32;;;;;;;;;;;;;;;22.48;20.74;98157.13;5097883;28;892;-76
2022/02/26 04:23:58;;;;;;;;;;;;;;;21.92;21.06;98148.91;5098066;28;879;-76
2022/02/26 04:26:24;;;;;;;;;;;;;;;21.84;21.05;98145.44;5097857;28;1902;-74
2022/02/26 04:28:49;;;;;;;;;;;;;;;21.66;21.59;98136.59;5098275;28;981;-76
2022/02/26 04:31:15;;;;;;;;;;;;;;;22.30;20.74;98151.97;5098352;28;1009;-76
2022/02/26 04:33:41;;;;;;;;;;;;;;;22.40;20.44;98144.41;5079464;28;952;-76
2022/02/26 04:36:06;;;;;;;;;;;;;;;22.08;20.95;98145.25;5097736;28;1172;-75
2022/02/26 04:38:35;;;;;;;;;;;;;;;21.83;21.43;98146.69;5097691;28;1081;-76
2022/02/26 04:41:01;;;;;;;;;;;;;;;21.77;21.18;98147.66;5097840;28;937;-74
2022/02/26 04:43:26;;;;;;;;;;;;;;;22.03;21.02;98154.28;5097528;28;934;-76
2022/02/26 04:45:52;;;;;;;;;;;;;;;22.52;20.61;98152.16;5098011;28;1976;-75
2022/02/26 04:48:17;;;;;;;;;;;;;;;22.45;20.44;98151.56;5097436;28;986;-76
2022/02/26 04:50:43;;;;;;;;;;;;;;;21.97;20.88;98156.06;5097649;28;976;-75
2022/02/26 04:53:08;;;;;;;;;;;;;;;21.85;21.22;98166.84;5097202;28;908;-76
2022/02/26 04:55:34;;;;;;;;;;;;;;;22.24;20.97;98169.97;5097399;28;860;-75
2022/02/26 04:57:59;;;;;;;;;;;;;;;22.47;20.51;98166.09;5097423;28;965;-76
2022/02/26 05:00:24;;;;;;;;;;;;;;;22.04;21.19;98170.03;5061174;28;926;-75
2022/02/26 05:02:50;;;;;;;;;;;;;;;21.85;21.18;98166.06;5097008;28;1084;-76
2022/02/26 05:05:15;;;;;;;;;;;;;;;21.79;21.48;98179.97;5097522;28;992;-76
2022/02/26 05:07:41;;;;;;;;;;;;;;;21.96;21.17;98177.13;5097106;28;1971;-76
2022/02/26 05:10:07;;;;;;;;;;;;;;;22.29;20.76;98177.94;5097167;28;1059;-75
2022/02/26 05:12:32;;;;;;;;;;;;;;;22.35;20.65;98181.81;5097247;28;846;-76
2022/02/26 05:14:57;;;;;;;;;;;;;;;22.26;20.90;98190.16;5097109;28;866;-76
2022/02/26 05:17:23;;;;;;;;;;;;;;;21.71;21.30;98189.88;5097237;28;846;-75
2022/02/26 05:19:48;;;;;;;;;;;;;;;21.65;21.30;98188.78;5097285;28;997;-75
2022/02/26 05:22:14;;;;;;;;;;;;;;;21.95;21.32;98201.03;5097043;28;832;-76
2022/02/26 05:24:39;;;;;;;;;;;;;;;22.53;20.67;98186.97;5097180;28;1067;-76
2022/02/26 05:27:05;;;;;;;;;;;;;;;22.77;20.03;98196.06;5095820;28;1945;-76
2022/02/26 05:29:30;;;;;;;;;;;;;;;22.20;20.80;98209.72;5097547;28;935;-76
2022/02/26 05:31:56;;;;;;;;;;;;;;;21.82;21.25;98206.63;5097071;28;958;-76
2022/02/26 05:34:21;;;;;;;;;;;;;;;21.73;21.61;98218.53;5096525;28;974;-76
2022/02/26 05:36:46;;;;;;;;;;;;;;;22.19;21.15;98224.34;5097045;28;902;-75
2022/02/26 05:39:12;;;;;;;;;;;;;;;22.38;20.78;98237.59;5096502;28;890;-76
2022/02/26 05:41:38;;;;;;;;;;;;;;;22.05;21.23;98222.63;5097071;28;1075;-75
2022/02/26 05:44:04;;;;;;;;;;;;;;;21.83;21.48;98237.31;5096475;28;893;-76
2022/02/26 05:46:29;;;;;;;;;;;;;;;21.84;21.52;98241.75;5044558;28;1910;-76
2022/02/26 05:48:55;;;;;;;;;;;;;;;22.08;21.33;98241.59;5096321;28;883;-76
2022/02/26 05:51:20;;;;;;;;;;;;;;;22.44;20.82;98246.41;5096422;28;925;-76
2022/02/26 05:53:46;;;;;;;;;;;;;;;22.57;20.49;98255.75;5096460;28;885;-74
2022/02/26 05:56:12;;;;;;;;;;;;;;;22.06;20.69;98263.88;5096684;28;904;-76
2022/02/26 05:58:37;;;;;;;;;;;;;;;22.08;20.99;98258.59;5053265;28;988;-76
2022/02/26 06:01:02;;;;;;;;;;;;;;;21.97;20.95;98275.06;5020414;28;1019;-75
2022/02/26 06:03:28;;;;;;;;;;;;;;;21.91;21.50;98265.47;5036481;28;1107;-76
2022/02/26 06:05:53;;;;;;;;;;;;;;;22.30;20.99;98268.19;5053672;28;1906;-76
2022/02/26 06:08:19;;;;;;;;;;;;;;;22.26;20.83;98264.63;5053602;28;1053;-76
2022/02/26 06:10:44;;;;;;;;;;;;;;;21.73;21.49;98231.91;5053580;28;1028;-76
2022/02/26 06:13:10;;;;;;;;;;;;;;;21.90;21.43;98269.53;5053383;28;988;-76
2022/02/26 06:15:35;;;;;;;;;;;;;;;21.75;21.68;98275.53;5013391;28;982;-74
2022/02/26 06:18:01;;;;;;;;;;;;;;;22.23;21.20;98274.03;5013243;28;1033;-76
2022/02/26 06:20:26;;;;;;;;;;;;;;;22.35;21.06;98281.81;5013946;28;981;-75
2022/02/26 06:22:52;;;;;;;;;;;;;;;22.09;20.99;98277.19;5013141;28;966;-75
2022/02/26 06:25:19;;;;;;;;;;;;;;;21.81;21.30;98279.47;5013697;28;1001;-76
2022/02/26 06:27:44;;;;;;;;;;;;;;;21.71;21.81;98280.50;5013022;28;1971;-76
2022/02/26 06:30:10;;;;;;;;;;;;;;;21.97;21.52;98286.41;5042106;28;965;-76
2022/02/26 06:32:35;;;;;;;;;;;;;;;22.25;20.92;98285.72;5036384;28;1089;-76
2022/02/26 06:35:01;;;;;;;;;;;;;;;22.30;21.16;98276.69;5053025;28;1017;-76
2022/02/26 06:37:27;;;;;;;;;;;;;;;22.04;21.33;98286.22;5032738;28;1035;-76
2022/02/26 06:39:52;;;;;;;;;;;;;;;21.62;22.02;98285.97;5032949;28;957;-76
2022/02/26 06:42:18;;;;;;;;;;;;;;;21.76;21.71;98291.31;5032743;28;1040;-76
2022/02/26 06:44:43;;;;;;;;;;;;;;;22.22;21.38;98297.94;5032813;28;1006;-75
2022/02/26 06:47:08;;;;;;;;;;;;;;;22.38;20.87;98299.19;5047366;28;1988;-76
2022/02/26 06:49:34;;;;;;;;;;;;;;;22.06;21.50;98300.72;5052407;28;979;-76
2022/02/26 06:51:59;;;;;;;;;;;;;;;21.74;21.92;98305.09;5052833;28;938;-75
2022/02/26 06:54:25;;;;;;;;;;;;;;;21.72;21.72;98301.13;5052610;28;946;-76
2022/02/26 06:56:51;;;;;;;;;;;;;;;22.08;21.49;98309.59;5052819;28;1040;-76
2022/02/26 06:59:17;;;;;;;;;;;;;;;22.38;21.19;98310.53;5052346;28;952;-75
2022/02/26 07:01:45;;;;;;;;;;;;;;;22.45;21.13;98321.69;5052537;28;1102;-76
2022/02/26 07:04:11;;;;;;;;;;;;;;;22.35;21.02;98324.34;5052512;28;1060;-76
2022/02/26 07:06:37;;;;;;;;;;;;;;;21.81;21.92;98313.47;5052301;28;1910;-76
2022/02/26 07:09:03;;;;;;;;;;;;;;;21.73;22.07;98329.00;5082477;28;1043;-76
2022/02/26 07:11:28;;;;;;;;;;;;;;;21.75;22.08;98320.84;5092707;28;913;-75
2022/02/26 07:13:54;;;;;;;;;;;;;;;22.13;21.57;98317.63;5072436;28;873;-76
2022/02/26 07:16:19;;;;;;;;;;;;;;;22.39;21.24;98323.47;5072172;28;1063;-77
2022/02/26 07:18:45;;;;;;;;;;;;;;;21.98;21.70;98316.31;5072179;28;956;-75
2022/02/26 07:21:10;;;;;;;;;;;;;;;21.83;21.68;98316.63;5072516;28;928;-76
2022/02/26 07:23:36;;;;;;;;;;;;;;;21.66;21.93;98317.00;5072573;28;994;-76
2022/02/26 07:26:03;;;;;;;;;;;;;;;22.14;21.70;98327.69;5072489;28;1981;-77
2022/02/26 07:28:28;;;;;;;;;;;;;;;22.36;21.44;98325.94;5072304;28;998;-75
2022/02/26 07:30:54;;;;;;;;;;;;;;;22.23;21.10;98333.56;5072876;28;946;-76
2022/02/26 07:33:19;;;;;;;;;;;;;;;21.90;21.73;98337.53;5071846;28;963;-76
2022/02/26 07:35:45;;;;;;;;;;;;;;;21.79;21.74;98332.13;5072329;28;1037;-76
2022/02/26 07:38:10;;;;;;;;;;;;;;;21.77;22.02;98343.88;5072055;28;1069;-76
2022/02/26 07:40:41;;;;;;;;;;;;;;;22.05;21.53;98333.16;5072533;28;1071;-77
2022/02/26 07:43:07;;;;;;;;;;;;;;;22.20;21.56;98342.94;5071922;28;959;-76
2022/02/26 07:45:32;;;;;;;;;;;;;;;21.85;21.89;98336.81;5089756;28;1034;-77
2022/02/26 07:47:58;;;;;;;;;;;;;;;21.67;21.93;98342.09;5094871;28;1910;-77
2022/02/26 07:50:23;;;;;;;;;;;;;;;21.97;21.77;98340.22;5095876;28;904;-77
2022/02/26 07:52:48;;;;;;;;;;;;;;;22.34;21.40;98348.28;5098723;28;956;-77
2022/02/26 07:55:14;;;;;;;;;;;;;;;22.43;21.36;98341.97;5098474;28;899;-77
2022/02/26 07:57:39;;;;;;;;;;;;;;;21.95;21.70;98351.19;5098624;28;915;-76
2022/02/26 08:00:05;;;;;;;;;;;;;;;21.85;22.12;98350.97;5099095;28;899;-76
2022/02/26 08:02:33;;;;;;;;;;;;;;;21.68;21.96;98355.00;5098442;28;1194;-77
2022/02/26 08:04:59;;;;;;;;;;;;;;;22.10;21.79;98358.13;5035380;28;1158;-77
2022/02/26 08:07:24;;;;;;;;;;;;;;;22.45;21.15;98355.72;4995513;28;1922;-77
2022/02/26 08:09:49;;;;;;;;;;;;;;;22.34;21.26;98358.81;4996065;28;1509;-76
2022/02/26 08:12:15;;;;;;;;;;;;;;;21.86;22.01;98363.09;4995623;28;1321;-76
2022/02/26 08:14:40;;;;;;;;;;;;;;;21.83;22.07;98361.16;4995815;28;1254;-77
2022/02/26 08:17:06;;;;;;;;;;;;;;;21.98;21.89;98368.13;4995692;28;1332;-76
2022/02/26 08:19:32;;;;;;;;;;;;;;;22.28;21.50;98364.22;4995686;28;1226;-77
2022/02/26 08:21:57;;;;;;;;;;;;;;;22.40;21.37;98370.44;4995555;28;1326;-72
2022/02/26 08:24:23;;;;;;;;;;;;;;;21.93;22.02;98367.84;4995553;28;1356;-75
2022/02/26 08:26:48;;;;;;;;;;;;;;;21.84;21.94;98374.88;4995942;28;1980;-75
2022/02/26 08:29:15;;;;;;;;;;;;;;;21.67;22.07;98364.75;4995747;28;933;-74
2022/02/26 08:31:41;;;;;;;;;;;;;;;22.05;21.90;98367.16;4996055;28;941;-76
2022/02/26 08:34:06;;;;;;;;;;;;;;;22.40;21.53;98370.44;4995856;28;957;-75
2022/02/26 08:36:32;;;;;;;;;;;;;;;22.07;21.68;98371.16;5024751;28;999;-75
2022/02/26 08:38:57;;;;;;;;;;;;;;;21.89;21.85;98367.13;5080148;28;1030;-75
2022/02/26 08:41:22;;;;;;;;;;;;;;;21.82;22.28;98371.69;5097848;28;1200;-74
2022/02/26 08:43:48;;;;;;;;;;;;;;;22.07;21.92;98378.84;5097259;28;1854;-75
2022/02/26 08:46:13;;;;;;;;;;;;;;;22.39;21.45;98386.66;5097445;28;1989;-75
2022/02/26 08:48:41;;;;;;;;;;;;;;;22.29;21.58;98382.81;5097666;28;1295;-75
2022/02/26 08:51:07;;;;;;;;;;;;;;;21.91;21.88;98384.47;5097308;28;1188;-75
2022/02/26 08:53:32;;;;;;;;;;;;;;;21.70;22.31;98386.50;5097593;28;1002;-75
2022/02/26 08:55:58;;;;;;;;;;;;;;;21.76;22.10;98384.78;5098062;28;990;-74
2022/02/26 08:58:23;;;;;;;;;;;;;;;22.15;21.66;98394.47;5097509;28;973;-75
2022/02/26 09:00:49;;;;;;;;;;;;;;;22.41;21.60;98392.66;5062124;28;1004;-74
2022/02/26 09:03:15;;;;;;;;;;;;;;;22.12;21.93;98391.72;5097334;28;1183;-75
2022/02/26 09:05:40;;;;;;;;;;;;;;;21.94;21.69;98394.94;5097902;28;1071;-74
2022/02/26 09:08:06;;;;;;;;;;;;;;;21.69;22.50;98384.13;5097303;28;1906;-76
2022/02/26 09:10:31;;;;;;;;;;;;;;;21.79;22.20;98389.56;5097736;28;1082;-75
2022/02/26 09:12:57;;;;;;;;;;;;;;;22.12;21.77;98384.00;5096970;28;973;-74
2022/02/26 09:15:22;;;;;;;;;;;;;;;22.30;21.45;98384.41;5098044;28;984;-76
2022/02/26 09:17:48;;;;;;;;;;;;;;;22.32;21.32;98387.59;5096555;28;865;-74
2022/02/26 09:20:13;;;;;;;;;;;;;;;22.06;21.95;98385.75;5097034;28;969;-75
2022/02/26 09:22:39;;;;;;;;;;;;;;;21.79;21.96;98386.72;5097075;28;939;-75
2022/02/26 09:25:05;;;;;;;;;;;;;;;21.91;22.21;98384.47;5045074;28;994;-75
2022/02/26 09:27:30;;;;;;;;;;;;;;;22.20;21.90;98388.28;5033932;28;1906;-76
2022/02/26 09:29:56;;;;;;;;;;;;;;;22.33;21.44;98386.38;5033945;28;1332;-75
2022/02/26 09:32:22;;;;;;;;;;;;;;;22.11;21.82;98393.75;5034201;28;955;-75
2022/02/26 09:34:48;;;;;;;;;;;;;;;21.91;22.16;98392.97;5034451;28;991;-75
2022/02/26 09:37:14;;;;;;;;;;;;;;;21.75;22.40;98399.38;5001668;28;957;-75
2022/02/26 09:39:39;;;;;;;;;;;;;;;22.09;21.98;98396.22;5034404;28;949;-74
2022/02/26 09:42:05;;;;;;;;;;;;;;;22.27;21.63;98399.44;5034260;28;1115;-75
2022/02/26 09:44:30;;;;;;;;;;;;;;;22.10;21.44;98401.47;5034048;28;949;-75
2022/02/26 09:46:56;;;;;;;;;;;;;;;21.98;21.82;98407.00;5034116;28;1914;-75
2022/02/26 09:49:21;;;;;;;;;;;;;;;21.82;22.20;98405.69;5033940;28;944;-75
2022/02/26 09:51:47;;;;;;;;;;;;;;;21.87;22.26;98407.22;5034256;28;1031;-75
2022/02/26 09:54:14;;;;;;;;;;;;;;;22.16;21.69;98409.44;5033980;28;1044;-75
2022/02/26 09:56:39;;;;;;;;;;;;;;;22.31;21.46;98405.84;5033621;28;1025;-74
2022/02/26 09:59:05;;;;;;;;;;;;;;;22.00;21.95;98393.16;5079798;28;1019;-75
2022/02/26 10:01:30;;;;;;;;;;;;;;;21.84;21.95;98397.53;5096374;28;1152;-75
2022/02/26 10:04:06;;;;;;;;;;;;;;;21.88;22.21;98402.34;5096521;28;951;-74
2022/02/26 10:06:31;;;;;;;;;;;;;;;22.18;21.70;98407.78;5096291;28;1914;-75
2022/02/26 10:08:58;;;;;;;;;;;;;;;22.45;21.21;98406.75;5096203;28;1087;-75
2022/02/26 10:11:34;;;;;;;;;;;;;;;22.10;21.60;98397.81;5096346;28;977;-75
2022/02/26 10:14:02;;;;;;;;;;;;;;;21.94;21.83;98395.72;5094697;28;1987;-75
2022/02/26 10:16:47;;;;;;;;;;;;;;;21.92;22.09;98405.91;5095861;28;1113;-74
2022/02/26 10:19:22;;;;;;;;;;;;;;;22.00;22.01;98393.97;5094893;28;1232;-75
2022/02/26 10:21:48;;;;;;;;;;;;;;;22.19;21.59;98389.53;5096250;28;1057;-75
2022/02/26 10:24:14;;;;;;;;;;;;;;;22.40;21.47;98393.13;5096320;28;966;-76
2022/02/26 10:26:39;;;;;;;;;;;;;;;21.93;21.87;98404.66;5078409;28;1906;-75
2022/02/26 10:29:08;;;;;;;;;;;;;;;21.85;22.29;98399.13;5059989;28;926;-75
2022/02/26 10:31:44;;;;;;;;;;;;;;;21.79;22.14;98400.88;5077737;28;899;-75
2022/02/26 10:34:28;;;;;;;;;;;;;;;22.21;22.00;98403.25;5095498;28;874;-75
2022/02/26 10:37:06;;;;;;;;;;;;;;;22.40;21.43;98404.44;5096170;28;945;-75
2022/02/26 10:39:45;;;;;;;;;;;;;;;21.92;21.93;98403.06;5095562;28;840;-76
2022/02/26 10:42:16;;;;;;;;;;;;;;;21.78;22.26;98396.47;5095651;28;983;-75
2022/02/26 10:44:42;;;;;;;;;;;;;;;22.01;21.97;98394.75;5095472;28;796;-74
2022/02/26 10:47:13;;;;;;;;;;;;;;;22.35;21.51;98392.41;5095386;28;1910;-76
2022/02/26 10:49:39;;;;;;;;;;;;;;;22.23;21.77;98398.75;5059729;28;997;-75
2022/02/26 10:52:07;;;;;;;;;;;;;;;21.94;22.06;98406.25;5096050;28;818;-75
2022/02/26 10:54:32;;;;;;;;;;;;;;;21.82;22.36;98391.53;5095894;28;960;-76
2022/02/26 10:57:03;;;;;;;;;;;;;;;22.02;22.04;98390.69;5095338;28;906;-75
2022/02/26 10:59:29;;;;;;;;;;;;;;;22.38;21.47;98385.03;5095566;28;883;-76
2022/02/26 11:02:02;;;;;;;;;;;;;;;22.29;21.38;98379.97;5096151;28;1238;-76
2022/02/26 11:04:28;;;;;;;;;;;;;;;22.02;22.07;98368.00;5095669;28;880;-75
2022/02/26 11:06:53;;;;;;;;;;;;;;;21.90;22.03;98371.53;5042805;28;1974;-75
2022/02/26 11:09:19;;;;;;;;;;;;;;;21.85;22.17;98365.16;5052528;28;1422;-76
2022/02/26 11:11:45;;;;;;;;;;;;;;;22.12;22.20;98374.72;5032492;28;1045;-76
2022/02/26 11:14:10;;;;;;;;;;;;;;;22.34;21.52;98373.78;5032476;28;1063;-75
2022/02/26 11:16:36;;;;;;;;;;;;;;;22.35;21.57;98380.25;5016547;28;1039;-76
2022/02/26 11:19:01;;;;;;;;;;;;;;;21.94;22.16;98378.72;5016262;28;927;-75
2022/02/26 11:21:27;;;;;;;;;;;;;;;21.84;22.46;98382.59;5033088;28;1037;-76
2022/02/26 11:23:52;;;;;;;;;;;;;;;21.92;22.16;98388.91;5032432;28;1057;-76
2022/02/26 11:26:19;;;;;;;;;;;;;;;22.38;21.59;98378.56;5035175;28;1978;-75
2022/02/26 11:28:48;;;;;;;;;;;;;;;22.36;21.54;98379.81;5036864;28;1000;-77
2022/02/26 11:31:18;;;;;;;;;;;;;;;21.73;22.45;98379.19;5003535;28;1036;-75
2022/02/26 11:33:44;;;;;;;;;;;;;;;21.81;22.23;98387.09;4980557;28;1721;-76
2022/02/26 11:36:09;;;;;;;;;;;;;;;21.78;22.49;98399.31;4997452;28;862;-77
2022/02/26 11:38:35;;;;;;;;;;;;;;;22.23;21.87;98383.78;4997571;28;894;-77
2022/02/26 11:41:20;;;;;;;;;;;;;;;22.44;21.45;98383.28;4997364;28;998;-76
2022/02/26 11:43:46;;;;;;;;;;;;;;;22.04;21.90;98393.91;5016395;28;1029;-75
2022/02/26 11:46:28;;;;;;;;;;;;;;;21.74;22.55;98387.25;4996637;28;1902;-75
2022/02/26 11:48:55;;;;;;;;;;;;;;;21.62;22.66;98389.94;4996892;28;921;-76
2022/02/26 11:51:29;;;;;;;;;;;;;;;22.12;22.06;98380.38;4996916;28;1143;-77
2022/02/26 11:53:54;;;;;;;;;;;;;;;22.49;21.69;98381.97;4996631;28;1216;-74
2022/02/26 11:56:20;;;;;;;;;;;;;;;22.37;21.59;98389.09;4997061;28;1088;-75
2022/02/26 11:58:45;;;;;;;;;;;;;;;21.97;22.03;98383.53;4996831;28;1059;-74
2022/02/26 12:01:12;;;;;;;;;;;;;;;21.74;22.55;98392.91;4996755;28;1035;-74
2022/02/26 12:03:44;;;;;;;;;;;;;;;21.68;22.65;98382.53;4996130;28;1046;-73
2022/02/26 12:06:09;;;;;;;;;;;;;;;22.08;22.19;98383.28;5014738;28;1906;-75
2022/02/26 12:08:40;;;;;;;;;;;;;;;22.35;21.94;98385.94;5015109;28;979;-74
2022/02/26 12:11:07;;;;;;;;;;;;;;;22.26;21.56;98394.22;5014854;28;1013;-75
2022/02/26 12:13:33;;;;;;;;;;;;;;;21.88;22.39;98391.81;5014846;28;1000;-75
2022/02/26 12:16:17;;;;;;;;;;;;;;;21.85;22.21;98389.84;5074610;28;880;-75
2022/02/26 12:18:44;;;;;;;;;;;;;;;21.91;22.30;98390.91;5074424;28;1070;-75
2022/02/26 12:21:14;;;;;;;;;;;;;;;22.36;22.00;98382.66;5074717;28;981;-75
2022/02/26 12:23:43;;;;;;;;;;;;;;;22.57;21.39;98380.53;5085872;28;900;-76
2022/02/26 12:26:10;;;;;;;;;;;;;;;22.03;21.94;98380.97;5097404;28;1901;-75
2022/02/26 12:28:36;;;;;;;;;;;;;;;21.77;22.37;98385.59;5054360;28;1019;-76
2022/02/26 12:31:02;;;;;;;;;;;;;;;21.65;22.57;98378.53;5038035;28;962;-75
2022/02/26 12:33:27;;;;;;;;;;;;;;;22.18;22.23;98370.94;5053914;28;929;-75
2022/02/26 12:36:06;;;;;;;;;;;;;;;22.42;21.65;98379.28;5021031;28;1037;-74
2022/02/26 12:38:32;;;;;;;;;;;;;;;22.02;22.13;98382.19;5053963;28;963;-75
2022/02/26 12:40:57;;;;;;;;;;;;;;;21.79;22.54;98383.91;5054461;28;967;-73
2022/02/26 12:43:32;;;;;;;;;;;;;;;21.91;22.33;98384.47;5053897;28;979;-75
2022/02/26 12:45:57;;;;;;;;;;;;;;;22.03;22.20;98380.97;5054346;28;986;-72
2022/02/26 12:48:23;;;;;;;;;;;;;;;22.26;21.82;98389.34;5053945;28;1914;-74
2022/02/26 12:50:48;;;;;;;;;;;;;;;22.36;21.92;98387.50;5037228;28;1114;-75
2022/02/26 12:53:14;;;;;;;;;;;;;;;21.81;22.56;98381.44;5037030;28;1457;-75
2022/02/26 12:55:39;;;;;;;;;;;;;;;21.71;22.59;98388.13;5054278;28;924;-75
2022/02/26 12:58:05;;;;;;;;;;;;;;;22.04;22.36;98388.22;5033124;28;1003;-75